Time;durP1;ratioP1;P1;durP2;ratioP2;P2;SDS_P1;SDS_P2;PMS_P1;PMS_P2;Temp;Humidity;BMP_temperature;BMP_pressure;BME280_temperature;BME280_humidity;BME280_pressure;Samples;Min_cycle;Max_cycle;Signal;HPM_P1;HPM_P2
2024/01/15 00:00:51;;;;;;;5.57;4.47;;;;;;;;;;5137366;28;20307;-65
2024/01/15 00:03:19;;;;;;;5.30;3.78;;;;;;;;;;5137326;28;20210;-65
2024/01/15 00:05:46;;;;;;;4.72;3.92;;;;;;;;;;5137700;28;20574;-65
2024/01/15 00:08:14;;;;;;;5.35;4.40;;;;;;;;;;5137191;28;20289;-65
2024/01/15 00:10:41;;;;;;;4.65;4.05;;;;;;;;;;5137062;28;20259;-65
2024/01/15 00:13:11;;;;;;;5.28;4.13;;;;;;;;;;5137170;28;20791;-65
2024/01/15 00:15:38;;;;;;;5.32;4.35;;;;;;;;;;5139021;27;20206;-65
2024/01/15 00:18:06;;;;;;;4.18;3.70;;;;;;;;;;5140087;27;20655;-65
2024/01/15 00:20:33;;;;;;;5.13;4.18;;;;;;;;;;5141224;27;20202;-65
2024/01/15 00:23:01;;;;;;;4.72;4.00;;;;;;;;;;5141017;27;20228;-65
2024/01/15 00:25:28;;;;;;;5.03;4.43;;;;;;;;;;5140669;27;20259;-65
2024/01/15 00:27:56;;;;;;;4.88;4.00;;;;;;;;;;5140797;27;20571;-66
2024/01/15 00:30:25;;;;;;;5.65;4.32;;;;;;;;;;5141260;27;20570;-66
2024/01/15 00:32:52;;;;;;;4.90;4.18;;;;;;;;;;5140649;27;20203;-65
2024/01/15 00:35:20;;;;;;;5.28;4.40;;;;;;;;;;5140988;27;20654;-65
2024/01/15 00:37:48;;;;;;;6.00;3.95;;;;;;;;;;5140510;27;20262;-65
2024/01/15 00:40:16;;;;;;;5.25;4.25;;;;;;;;;;5140277;27;20233;-65
2024/01/15 00:42:43;;;;;;;4.95;4.13;;;;;;;;;;5141007;27;20298;-65
2024/01/15 00:45:11;;;;;;;5.20;4.07;;;;;;;;;;5140691;27;20215;-65
2024/01/15 00:47:40;;;;;;;5.18;4.05;;;;;;;;;;5139849;27;20504;-65
2024/01/15 00:50:08;;;;;;;5.20;4.50;;;;;;;;;;5140527;27;20202;-65
2024/01/15 00:52:36;;;;;;;5.55;4.57;;;;;;;;;;5140570;27;20202;-65
2024/01/15 00:55:03;;;;;;;4.85;4.35;;;;;;;;;;5140496;27;20241;-65
2024/01/15 00:57:31;;;;;;;6.15;4.50;;;;;;;;;;5140332;27;20308;-65
2024/01/15 00:59:58;;;;;;;5.70;4.55;;;;;;;;;;5139897;27;20234;-65
2024/01/15 01:02:26;;;;;;;5.40;4.55;;;;;;;;;;5140319;27;20283;-65
2024/01/15 01:04:55;;;;;;;5.22;4.32;;;;;;;;;;5139869;27;20285;-65
2024/01/15 01:07:22;;;;;;;5.57;4.70;;;;;;;;;;5140325;27;20463;-65
2024/01/15 01:09:51;;;;;;;5.45;4.22;;;;;;;;;;5140177;27;20267;-65
2024/01/15 01:12:18;;;;;;;6.03;4.90;;;;;;;;;;5140583;27;20237;-65
2024/01/15 01:14:46;;;;;;;4.85;3.95;;;;;;;;;;5139829;27;20206;-65
2024/01/15 01:17:13;;;;;;;4.35;3.80;;;;;;;;;;5139586;27;20316;-65
2024/01/15 01:19:41;;;;;;;4.95;4.28;;;;;;;;;;5139383;27;20578;-65
2024/01/15 01:22:10;;;;;;;5.65;4.68;;;;;;;;;;5139257;27;20210;-66
2024/01/15 01:24:37;;;;;;;5.75;4.53;;;;;;;;;;5139200;27;20202;-66
2024/01/15 01:27:05;;;;;;;5.53;4.18;;;;;;;;;;5139532;27;20237;-65
2024/01/15 01:29:32;;;;;;;5.60;4.47;;;;;;;;;;5139694;27;20202;-65
2024/01/15 01:32:00;;;;;;;4.88;4.25;;;;;;;;;;5139156;27;20228;-65
2024/01/15 01:34:28;;;;;;;5.65;4.78;;;;;;;;;;5138930;27;20330;-65
2024/01/15 01:36:55;;;;;;;6.05;4.72;;;;;;;;;;5139660;27;20318;-65
2024/01/15 01:39:24;;;;;;;5.50;4.65;;;;;;;;;;5139220;27;20237;-66
2024/01/15 01:41:52;;;;;;;4.90;4.30;;;;;;;;;;5138978;27;20206;-65
2024/01/15 01:44:19;;;;;;;6.15;4.75;;;;;;;;;;5139662;27;20202;-65
2024/01/15 01:46:47;;;;;;;6.63;4.60;;;;;;;;;;5139296;27;20210;-65
2024/01/15 01:49:14;;;;;;;5.50;4.47;;;;;;;;;;5138822;27;20213;-65
2024/01/15 01:51:42;;;;;;;5.82;4.80;;;;;;;;;;5139286;27;20206;-65
2024/01/15 01:54:12;;;;;;;6.18;5.20;;;;;;;;;;5139349;27;20211;-65
2024/01/15 01:56:42;;;;;;;5.85;5.25;;;;;;;;;;5139100;27;20202;-65
2024/01/15 01:59:11;;;;;;;5.50;4.82;;;;;;;;;;5138671;27;20280;-65
2024/01/15 02:01:39;;;;;;;6.40;5.25;;;;;;;;;;5138988;27;20312;-65
2024/01/15 02:04:06;;;;;;;6.15;4.80;;;;;;;;;;5138550;27;20266;-65
2024/01/15 02:06:34;;;;;;;7.05;5.32;;;;;;;;;;5138695;27;20217;-65
2024/01/15 02:09:01;;;;;;;5.97;4.97;;;;;;;;;;5138078;27;20286;-65
2024/01/15 02:11:29;;;;;;;6.28;5.13;;;;;;;;;;5138703;27;20249;-65
2024/01/15 02:13:58;;;;;;;5.82;4.75;;;;;;;;;;5138383;27;20206;-65
2024/01/15 02:16:26;;;;;;;6.47;5.20;;;;;;;;;;5138245;27;20246;-66
2024/01/15 02:18:53;;;;;;;6.35;5.07;;;;;;;;;;5138710;27;20233;-65
2024/01/15 02:21:21;;;;;;;7.38;5.03;;;;;;;;;;5138090;27;20210;-65
2024/01/15 02:23:49;;;;;;;5.88;4.85;;;;;;;;;;5138745;27;20237;-65
2024/01/15 02:26:17;;;;;;;7.05;5.18;;;;;;;;;;5137489;27;20206;-66
2024/01/15 02:28:45;;;;;;;6.00;5.28;;;;;;;;;;5137877;27;20297;-65
2024/01/15 02:31:12;;;;;;;6.13;4.93;;;;;;;;;;5138812;27;20208;-65
2024/01/15 02:33:42;;;;;;;6.47;5.05;;;;;;;;;;5138357;27;20288;-65
2024/01/15 02:36:09;;;;;;;7.28;5.35;;;;;;;;;;5137973;27;20597;-65
2024/01/15 02:38:37;;;;;;;7.35;5.57;;;;;;;;;;5136807;27;20296;-65
2024/01/15 02:41:06;;;;;;;6.63;5.18;;;;;;;;;;5138012;27;20652;-65
2024/01/15 02:43:33;;;;;;;6.88;5.55;;;;;;;;;;5137453;27;20203;-65
2024/01/15 02:46:01;;;;;;;6.95;5.60;;;;;;;;;;5137998;27;20551;-66
2024/01/15 02:48:28;;;;;;;7.00;6.15;;;;;;;;;;5138185;27;20289;-65
2024/01/15 02:50:56;;;;;;;6.47;5.50;;;;;;;;;;5137649;27;20289;-65
2024/01/15 02:53:23;;;;;;;7.38;5.93;;;;;;;;;;5137590;27;20267;-65
2024/01/15 02:55:51;;;;;;;6.95;5.50;;;;;;;;;;5137987;27;20594;-65
2024/01/15 02:58:20;;;;;;;7.70;5.53;;;;;;;;;;5137780;27;20251;-65
2024/01/15 03:00:48;;;;;;;7.65;5.70;;;;;;;;;;5138304;27;20609;-65
2024/01/15 03:03:15;;;;;;;6.47;5.50;;;;;;;;;;5137398;27;20263;-65
2024/01/15 03:05:43;;;;;;;8.32;6.25;;;;;;;;;;5138132;27;20536;-65
2024/01/15 03:08:11;;;;;;;6.65;5.50;;;;;;;;;;5137854;27;20206;-65
2024/01/15 03:10:38;;;;;;;7.32;6.10;;;;;;;;;;5136984;27;20259;-65
2024/01/15 03:13:05;;;;;;;7.28;5.97;;;;;;;;;;5137210;27;20262;-65
2024/01/15 03:15:34;;;;;;;8.23;5.90;;;;;;;;;;5137063;27;20210;-65
2024/01/15 03:18:02;;;;;;;7.68;6.05;;;;;;;;;;5137675;27;20226;-65
2024/01/15 03:20:29;;;;;;;7.57;5.95;;;;;;;;;;5137678;28;20493;-65
2024/01/15 03:22:57;;;;;;;7.35;6.38;;;;;;;;;;5137755;28;20250;-65
2024/01/15 03:25:25;;;;;;;7.15;5.90;;;;;;;;;;5137463;28;20300;-65
2024/01/15 03:27:52;;;;;;;7.95;6.10;;;;;;;;;;5137821;28;20206;-65
2024/01/15 03:30:20;;;;;;;8.23;6.50;;;;;;;;;;5136918;28;20198;-65
2024/01/15 03:32:49;;;;;;;7.60;6.00;;;;;;;;;;5136959;28;20226;-65
2024/01/15 03:35:17;;;;;;;7.63;6.18;;;;;;;;;;5137099;28;20210;-65
2024/01/15 03:37:45;;;;;;;7.47;6.30;;;;;;;;;;5137089;28;20294;-65
2024/01/15 03:40:13;;;;;;;7.88;6.25;;;;;;;;;;5136926;28;20266;-65
2024/01/15 03:42:40;;;;;;;7.82;6.15;;;;;;;;;;5137911;28;20301;-65
2024/01/15 03:45:08;;;;;;;7.75;6.38;;;;;;;;;;5136936;28;20206;-65
2024/01/15 03:47:35;;;;;;;8.65;6.65;;;;;;;;;;5136755;28;20282;-65
2024/01/15 03:50:05;;;;;;;8.85;6.45;;;;;;;;;;5138423;27;20570;-65
2024/01/15 03:52:32;;;;;;;9.00;6.93;;;;;;;;;;5141142;27;20202;-65
2024/01/15 03:55:00;;;;;;;8.73;6.35;;;;;;;;;;5141705;27;20297;-65
2024/01/15 03:57:27;;;;;;;9.27;7.00;;;;;;;;;;5140980;27;20470;-65
2024/01/15 03:59:55;;;;;;;8.15;6.38;;;;;;;;;;5140922;27;20280;-65
2024/01/15 04:02:22;;;;;;;7.35;6.18;;;;;;;;;;5140633;27;20262;-65
2024/01/15 04:04:50;;;;;;;8.80;6.97;;;;;;;;;;5141000;27;20202;-65
2024/01/15 04:07:19;;;;;;;7.70;6.22;;;;;;;;;;5141053;27;20471;-65
2024/01/15 04:09:46;;;;;;;8.05;6.60;;;;;;;;;;5141451;27;20527;-65
2024/01/15 04:12:14;;;;;;;8.43;6.95;;;;;;;;;;5141470;27;20245;-65
2024/01/15 04:14:41;;;;;;;7.55;6.20;;;;;;;;;;5141267;27;20575;-65
2024/01/15 04:17:09;;;;;;;8.55;6.63;;;;;;;;;;5140923;27;20319;-65
2024/01/15 04:19:37;;;;;;;8.18;6.38;;;;;;;;;;5141314;27;20333;-65
2024/01/15 04:22:04;;;;;;;7.70;6.70;;;;;;;;;;5140400;27;20660;-65
2024/01/15 04:24:34;;;;;;;7.93;6.30;;;;;;;;;;5140949;27;20237;-65
2024/01/15 04:27:02;;;;;;;9.73;7.13;;;;;;;;;;5140624;27;20214;-65
2024/01/15 04:29:30;;;;;;;8.70;6.50;;;;;;;;;;5140446;27;20198;-65
2024/01/15 04:31:57;;;;;;;8.75;6.60;;;;;;;;;;5140235;27;20263;-65
2024/01/15 04:34:24;;;;;;;8.30;6.43;;;;;;;;;;5140928;27;20275;-65
2024/01/15 04:36:52;;;;;;;7.85;6.07;;;;;;;;;;5140439;27;20246;-65
2024/01/15 04:39:19;;;;;;;8.18;6.45;;;;;;;;;;5140337;27;20649;-65
2024/01/15 04:41:48;;;;;;;8.82;6.50;;;;;;;;;;5140109;27;20610;-65
2024/01/15 04:44:16;;;;;;;9.02;6.97;;;;;;;;;;5140004;27;20244;-66
2024/01/15 04:46:43;;;;;;;8.20;6.25;;;;;;;;;;5139984;27;20213;-65
2024/01/15 04:49:11;;;;;;;7.00;5.60;;;;;;;;;;5140266;27;20209;-65
2024/01/15 04:51:38;;;;;;;8.00;6.20;;;;;;;;;;5139628;27;20241;-65
2024/01/15 04:54:06;;;;;;;9.23;7.07;;;;;;;;;;5140048;27;20217;-65
2024/01/15 04:56:34;;;;;;;7.55;5.65;;;;;;;;;;5139923;27;20202;-65
2024/01/15 04:59:03;;;;;;;8.35;6.35;;;;;;;;;;5139327;27;20273;-65
2024/01/15 05:01:32;;;;;;;7.40;5.85;;;;;;;;;;5138351;27;20308;-65
2024/01/15 05:04:00;;;;;;;8.55;6.55;;;;;;;;;;5139496;27;20255;-65
2024/01/15 05:06:27;;;;;;;8.93;6.80;;;;;;;;;;5139871;27;20208;-65
2024/01/15 05:08:54;;;;;;;7.93;6.40;;;;;;;;;;5139268;27;20209;-65
2024/01/15 05:11:22;;;;;;;8.40;7.10;;;;;;;;;;5139684;27;20202;-65
2024/01/15 05:13:49;;;;;;;7.50;6.43;;;;;;;;;;5139335;27;20597;-65
2024/01/15 05:16:18;;;;;;;7.35;6.38;;;;;;;;;;5139469;27;20214;-65
2024/01/15 05:18:45;;;;;;;8.32;6.35;;;;;;;;;;5139136;27;20237;-65
2024/01/15 05:21:12;;;;;;;7.75;6.13;;;;;;;;;;5139156;27;20202;-65
2024/01/15 05:23:40;;;;;;;8.35;6.18;;;;;;;;;;5139130;27;20210;-65
2024/01/15 05:26:08;;;;;;;7.50;6.35;;;;;;;;;;5138767;27;20208;-65
2024/01/15 05:28:36;;;;;;;7.85;6.20;;;;;;;;;;5138091;27;20292;-64
2024/01/15 05:31:04;;;;;;;8.68;6.35;;;;;;;;;;5138999;27;20274;-65
2024/01/15 05:33:32;;;;;;;8.70;6.47;;;;;;;;;;5137839;27;20212;-65
2024/01/15 05:36:00;;;;;;;8.23;6.18;;;;;;;;;;5138873;27;20578;-65
2024/01/15 05:38:27;;;;;;;8.52;6.47;;;;;;;;;;5138293;27;20198;-65
2024/01/15 05:40:55;;;;;;;7.80;6.57;;;;;;;;;;5138044;27;20203;-65
2024/01/15 05:43:22;;;;;;;7.43;5.85;;;;;;;;;;5138089;27;20529;-65
2024/01/15 05:45:49;;;;;;;10.13;6.57;;;;;;;;;;5137866;27;20202;-65
2024/01/15 05:48:16;;;;;;;7.07;5.68;;;;;;;;;;5137877;27;20202;-65
2024/01/15 05:50:46;;;;;;;7.28;5.88;;;;;;;;;;5138326;27;20221;-65
2024/01/15 05:53:13;;;;;;;7.88;5.70;;;;;;;;;;5137660;27;20202;-65
2024/01/15 05:55:40;;;;;;;8.63;6.10;;;;;;;;;;5137326;27;20581;-65
2024/01/15 05:58:08;;;;;;;7.97;6.13;;;;;;;;;;5136776;27;20205;-65
2024/01/15 06:00:35;;;;;;;8.30;6.32;;;;;;;;;;5136403;27;20241;-65
2024/01/15 06:03:03;;;;;;;7.88;6.25;;;;;;;;;;5136439;27;20218;-65
2024/01/15 06:05:30;;;;;;;7.53;6.05;;;;;;;;;;5135500;27;20212;-65
2024/01/15 06:07:59;;;;;;;7.47;6.13;;;;;;;;;;5136161;27;20231;-65
2024/01/15 06:10:27;;;;;;;7.15;6.00;;;;;;;;;;5138074;27;20221;-65
2024/01/15 06:12:54;;;;;;;7.40;6.20;;;;;;;;;;5136984;27;20206;-65
2024/01/15 06:15:21;;;;;;;8.30;5.97;;;;;;;;;;5135815;27;20202;-65
2024/01/15 06:17:49;;;;;;;7.55;6.00;;;;;;;;;;5135750;27;20209;-67
2024/01/15 06:20:16;;;;;;;7.50;5.93;;;;;;;;;;5135723;27;20222;-65
2024/01/15 06:22:43;;;;;;;8.10;6.30;;;;;;;;;;5135990;27;20586;-65
2024/01/15 06:25:12;;;;;;;6.75;5.57;;;;;;;;;;5136424;27;20202;-65
2024/01/15 06:27:39;;;;;;;6.97;5.93;;;;;;;;;;5137009;27;20213;-65
2024/01/15 06:30:07;;;;;;;7.35;6.10;;;;;;;;;;5136277;27;20199;-65
2024/01/15 06:32:35;;;;;;;7.60;5.47;;;;;;;;;;5135835;27;20206;-65
2024/01/15 06:35:02;;;;;;;7.03;5.57;;;;;;;;;;5134777;27;20210;-65
2024/01/15 06:37:29;;;;;;;7.45;6.22;;;;;;;;;;5136474;27;20214;-66
2024/01/15 06:39:56;;;;;;;6.38;5.13;;;;;;;;;;5134877;27;20222;-65
2024/01/15 06:42:25;;;;;;;7.60;5.70;;;;;;;;;;5135996;27;20585;-65
2024/01/15 06:44:53;;;;;;;7.75;6.00;;;;;;;;;;5134619;27;20194;-65
2024/01/15 06:47:20;;;;;;;7.35;6.32;;;;;;;;;;5135952;27;20202;-65
2024/01/15 06:49:48;;;;;;;7.93;5.90;;;;;;;;;;5136857;27;20209;-65
2024/01/15 06:52:15;;;;;;;7.35;5.80;;;;;;;;;;5135477;27;20210;-65
2024/01/15 06:54:43;;;;;;;7.40;5.78;;;;;;;;;;5136362;27;20194;-65
2024/01/15 06:57:10;;;;;;;6.55;5.45;;;;;;;;;;5135370;27;20225;-65
2024/01/15 06:59:39;;;;;;;7.07;5.78;;;;;;;;;;5135070;27;20230;-65
2024/01/15 07:02:06;;;;;;;8.02;5.68;;;;;;;;;;5136079;27;20206;-65
2024/01/15 07:04:33;;;;;;;7.05;5.50;;;;;;;;;;5135924;27;20202;-65
2024/01/15 07:07:01;;;;;;;7.63;5.40;;;;;;;;;;5135791;27;20202;-65
2024/01/15 07:09:28;;;;;;;7.90;6.15;;;;;;;;;;5134567;27;20191;-65
2024/01/15 07:11:57;;;;;;;6.82;5.82;;;;;;;;;;5135364;27;20202;-65
2024/01/15 07:14:24;;;;;;;7.30;5.43;;;;;;;;;;5136236;27;20259;-65
2024/01/15 07:16:53;;;;;;;7.22;5.53;;;;;;;;;;5135997;27;20202;-64
2024/01/15 07:19:20;;;;;;;6.72;5.63;;;;;;;;;;5135677;27;20232;-65
2024/01/15 07:21:48;;;;;;;6.82;5.38;;;;;;;;;;5136315;27;20203;-65
2024/01/15 07:24:15;;;;;;;7.45;5.30;;;;;;;;;;5134933;27;20617;-65
2024/01/15 07:26:43;;;;;;;6.47;4.93;;;;;;;;;;5136245;28;20205;-65
2024/01/15 07:29:10;;;;;;;7.07;5.40;;;;;;;;;;5135697;28;20597;-65
2024/01/15 07:31:37;;;;;;;6.72;5.30;;;;;;;;;;5135759;28;20213;-65
2024/01/15 07:34:06;;;;;;;6.68;5.22;;;;;;;;;;5135990;28;20202;-65
2024/01/15 07:36:33;;;;;;;7.00;5.65;;;;;;;;;;5136253;28;20202;-65
2024/01/15 07:39:01;;;;;;;7.00;5.70;;;;;;;;;;5135241;28;20465;-65
2024/01/15 07:41:29;;;;;;;6.40;4.95;;;;;;;;;;5135501;28;20210;-65
2024/01/15 07:43:56;;;;;;;6.13;5.40;;;;;;;;;;5135279;28;20225;-65
2024/01/15 07:46:24;;;;;;;6.60;5.00;;;;;;;;;;5135277;28;20626;-65
2024/01/15 07:48:56;;;;;;;6.03;4.78;;;;;;;;;;5135174;28;20203;-65
2024/01/15 07:51:25;;;;;;;6.70;5.10;;;;;;;;;;5135389;28;20206;-65
2024/01/15 07:53:52;;;;;;;6.40;5.28;;;;;;;;;;5135112;28;20489;-65
2024/01/15 07:56:20;;;;;;;6.35;5.07;;;;;;;;;;5135482;28;20647;-65
2024/01/15 07:58:48;;;;;;;6.95;5.10;;;;;;;;;;5135122;27;20570;-65
2024/01/15 08:01:15;;;;;;;6.65;4.95;;;;;;;;;;5135569;28;20605;-65
2024/01/15 08:03:43;;;;;;;6.50;5.57;;;;;;;;;;5135056;28;20313;-65
2024/01/15 08:06:10;;;;;;;5.68;4.88;;;;;;;;;;5135575;28;20194;-65
2024/01/15 08:08:40;;;;;;;5.97;5.07;;;;;;;;;;5135532;28;20202;-65
2024/01/15 08:11:07;;;;;;;6.78;5.00;;;;;;;;;;5134257;28;20209;-65
2024/01/15 08:13:34;;;;;;;6.22;4.65;;;;;;;;;;5135474;28;20202;-65
2024/01/15 08:16:02;;;;;;;5.93;4.85;;;;;;;;;;5135451;28;20594;-65
2024/01/15 08:18:29;;;;;;;5.85;5.18;;;;;;;;;;5135482;28;20208;-65
2024/01/15 08:20:56;;;;;;;6.60;5.03;;;;;;;;;;5135278;28;20222;-65
2024/01/15 08:23:24;;;;;;;5.82;5.15;;;;;;;;;;5135179;28;20203;-65
2024/01/15 08:25:53;;;;;;;6.28;5.35;;;;;;;;;;5135085;28;20232;-65
2024/01/15 08:28:20;;;;;;;5.72;4.72;;;;;;;;;;5135292;28;20686;-65
2024/01/15 08:30:48;;;;;;;6.45;4.95;;;;;;;;;;5134601;28;20239;-65
2024/01/15 08:33:15;;;;;;;6.30;4.82;;;;;;;;;;5135400;28;20499;-65
2024/01/15 08:35:43;;;;;;;5.10;4.43;;;;;;;;;;5134960;27;20202;-65
2024/01/15 08:38:10;;;;;;;5.70;4.75;;;;;;;;;;5137212;27;20488;-65
2024/01/15 08:40:37;;;;;;;5.50;4.28;;;;;;;;;;5137670;27;20226;-65
2024/01/15 08:43:06;;;;;;;5.80;5.00;;;;;;;;;;5138518;27;20212;-65
2024/01/15 08:45:34;;;;;;;5.68;4.93;;;;;;;;;;5138556;27;20233;-65
2024/01/15 08:48:02;;;;;;;6.15;4.53;;;;;;;;;;5138683;27;20202;-66
2024/01/15 08:50:29;;;;;;;5.38;4.50;;;;;;;;;;5137622;27;20206;-65
2024/01/15 08:52:57;;;;;;;5.05;4.50;;;;;;;;;;5137957;27;20794;-65
2024/01/15 08:55:24;;;;;;;5.53;4.97;;;;;;;;;;5138055;27;20205;-65
2024/01/15 08:57:51;;;;;;;5.53;4.30;;;;;;;;;;5138157;27;20206;-65
2024/01/15 09:00:20;;;;;;;5.13;4.63;;;;;;;;;;5137920;27;20234;-65
2024/01/15 09:02:48;;;;;;;5.53;4.32;;;;;;;;;;5138035;27;20209;-65
2024/01/15 09:05:15;;;;;;;5.43;4.45;;;;;;;;;;5137720;27;20206;-65
2024/01/15 09:07:42;;;;;;;5.82;5.00;;;;;;;;;;5138104;27;20589;-65
2024/01/15 09:10:10;;;;;;;4.90;4.40;;;;;;;;;;5138219;27;20650;-65
2024/01/15 09:12:38;;;;;;;4.90;3.95;;;;;;;;;;5137625;27;20243;-65
2024/01/15 09:15:08;;;;;;;5.65;4.47;;;;;;;;;;5139176;27;20232;-64
2024/01/15 09:17:37;;;;;;;5.05;4.35;;;;;;;;;;5138116;27;20304;-65
2024/01/15 09:20:05;;;;;;;6.22;4.47;;;;;;;;;;5137918;27;20233;-65
2024/01/15 09:22:33;;;;;;;6.13;4.53;;;;;;;;;;5137624;27;20202;-64
2024/01/15 09:25:00;;;;;;;6.00;4.22;;;;;;;;;;5137413;27;20213;-65
2024/01/15 09:27:27;;;;;;;5.53;4.60;;;;;;;;;;5137860;27;20237;-65
2024/01/15 09:29:55;;;;;;;5.53;4.38;;;;;;;;;;5137723;27;20194;-65
2024/01/15 09:32:22;;;;;;;5.45;4.50;;;;;;;;;;5138010;27;20203;-65
2024/01/15 09:34:51;;;;;;;4.95;4.15;;;;;;;;;;5137783;27;20202;-64
2024/01/15 09:37:18;;;;;;;6.00;4.40;;;;;;;;;;5138120;27;20262;-65
2024/01/15 09:39:46;;;;;;;5.53;4.25;;;;;;;;;;5135646;27;20226;-64
2024/01/15 09:42:13;;;;;;;4.63;4.07;;;;;;;;;;5135992;27;20210;-64
2024/01/15 09:44:41;;;;;;;5.05;4.10;;;;;;;;;;5137268;27;20609;-64
2024/01/15 09:47:09;;;;;;;5.15;3.80;;;;;;;;;;5136214;27;20211;-65
2024/01/15 09:49:38;;;;;;;4.82;4.07;;;;;;;;;;5136351;27;20194;-65
2024/01/15 09:52:07;;;;;;;5.72;3.72;;;;;;;;;;5136339;27;20213;-65
2024/01/15 09:54:35;;;;;;;4.70;4.10;;;;;;;;;;5136412;27;20263;-64
2024/01/15 09:57:02;;;;;;;5.35;4.10;;;;;;;;;;5136878;27;20202;-64
2024/01/15 09:59:29;;;;;;;5.18;4.32;;;;;;;;;;5136635;27;20503;-64
2024/01/15 10:01:57;;;;;;;4.85;3.95;;;;;;;;;;5137161;27;20660;-65
2024/01/15 10:04:24;;;;;;;4.55;3.85;;;;;;;;;;5136531;27;20206;-65
2024/01/15 10:06:52;;;;;;;5.53;3.85;;;;;;;;;;5136838;27;20200;-65
2024/01/15 10:09:22;;;;;;;4.80;3.78;;;;;;;;;;5136524;27;20212;-65
2024/01/15 10:11:49;;;;;;;4.93;3.88;;;;;;;;;;5137075;27;20248;-64
2024/01/15 10:14:17;;;;;;;5.20;4.30;;;;;;;;;;5137545;27;20209;-64
2024/01/15 10:16:44;;;;;;;5.13;4.10;;;;;;;;;;5137152;27;20493;-64
2024/01/15 10:19:12;;;;;;;4.80;4.10;;;;;;;;;;5136679;27;20241;-64
2024/01/15 10:21:39;;;;;;;5.05;4.15;;;;;;;;;;5136687;27;20222;-65
2024/01/15 10:24:07;;;;;;;4.38;3.63;;;;;;;;;;5136418;27;20205;-64
2024/01/15 10:26:36;;;;;;;5.30;3.90;;;;;;;;;;5135550;27;20266;-64
2024/01/15 10:29:05;;;;;;;5.90;4.10;;;;;;;;;;5136278;27;20225;-65
2024/01/15 10:31:33;;;;;;;5.28;3.90;;;;;;;;;;5135353;27;20209;-65
2024/01/15 10:34:11;;;;;;;4.78;3.80;;;;;;;;;;5135351;27;20209;-65
2024/01/15 10:36:41;;;;;;;5.13;4.07;;;;;;;;;;5135709;27;20267;-65
2024/01/15 10:39:08;;;;;;;4.25;3.42;;;;;;;;;;5136530;27;20203;-65
2024/01/15 10:41:37;;;;;;;5.13;3.80;;;;;;;;;;5135920;27;20682;-64
2024/01/15 10:44:04;;;;;;;5.38;3.72;;;;;;;;;;5135511;27;20202;-64
2024/01/15 10:46:32;;;;;;;5.28;4.50;;;;;;;;;;5135240;27;20202;-65
2024/01/15 10:48:59;;;;;;;4.10;3.70;;;;;;;;;;5136233;27;20259;-65
2024/01/15 10:51:27;;;;;;;4.03;3.63;;;;;;;;;;5135856;27;20213;-65
2024/01/15 10:53:55;;;;;;;4.88;4.10;;;;;;;;;;5135240;27;20209;-65
2024/01/15 10:56:24;;;;;;;5.35;3.90;;;;;;;;;;5135419;27;20210;-64
2024/01/15 10:58:54;;;;;;;4.85;3.80;;;;;;;;;;5135499;27;20236;-64
2024/01/15 11:01:21;;;;;;;5.13;3.88;;;;;;;;;;5135324;27;20221;-64
2024/01/15 11:03:49;;;;;;;5.18;4.10;;;;;;;;;;5135285;27;20616;-64
2024/01/15 11:06:19;;;;;;;4.78;3.63;;;;;;;;;;5135777;27;20277;-64
2024/01/15 11:08:47;;;;;;;4.13;3.50;;;;;;;;;;5135292;27;20245;-64
2024/01/15 11:11:14;;;;;;;5.05;3.45;;;;;;;;;;5135118;27;20202;-64
2024/01/15 11:13:43;;;;;;;4.03;3.28;;;;;;;;;;5135170;27;20194;-64
2024/01/15 11:16:13;;;;;;;4.80;3.78;;;;;;;;;;5135060;27;20268;-64
2024/01/15 11:18:42;;;;;;;3.78;3.38;;;;;;;;;;5134708;27;20198;-64
2024/01/15 11:21:23;;;;;;;4.20;3.80;;;;;;;;;;5134690;27;20226;-64
2024/01/15 11:23:50;;;;;;;4.13;3.28;;;;;;;;;;5134971;28;20296;-64
2024/01/15 11:26:37;;;;;;;3.80;3.40;;;;;;;;;;5135121;27;20210;-65
2024/01/15 11:29:05;;;;;;;4.05;3.50;;;;;;;;;;5134488;28;20210;-64
2024/01/15 11:31:46;;;;;;;4.47;3.92;;;;;;;;;;5134734;27;20205;-65
2024/01/15 11:34:15;;;;;;;4.00;3.35;;;;;;;;;;5133400;27;20510;-64
2024/01/15 11:37:01;;;;;;;4.60;3.60;;;;;;;;;;5135392;28;20742;-65
2024/01/15 11:39:44;;;;;;;4.13;3.50;;;;;;;;;;5135221;27;20916;-64
2024/01/15 11:42:12;;;;;;;4.28;3.85;;;;;;;;;;5135049;28;20412;-64
2024/01/15 11:44:39;;;;;;;4.60;3.78;;;;;;;;;;5135602;27;20206;-65
2024/01/15 11:47:07;;;;;;;4.28;3.55;;;;;;;;;;5135335;27;20213;-65
2024/01/15 11:49:56;;;;;;;4.25;3.28;;;;;;;;;;5134829;28;20198;-64
2024/01/15 11:52:23;;;;;;;4.32;3.70;;;;;;;;;;5135157;27;20245;-64
2024/01/15 11:54:57;;;;;;;3.53;3.13;;;;;;;;;;5135476;27;20210;-64
2024/01/15 11:57:29;;;;;;;3.78;3.40;;;;;;;;;;5134764;27;20528;-65
2024/01/15 11:59:56;;;;;;;5.30;3.80;;;;;;;;;;5135166;28;20245;-64
2024/01/15 12:02:24;;;;;;;4.60;3.80;;;;;;;;;;5134114;28;20232;-65
2024/01/15 12:04:53;;;;;;;4.50;3.45;;;;;;;;;;5133853;27;20483;-65
2024/01/15 12:07:21;;;;;;;3.90;3.42;;;;;;;;;;5133681;27;20198;-64
2024/01/15 12:09:48;;;;;;;3.95;3.35;;;;;;;;;;5135435;27;20202;-64
2024/01/15 12:12:20;;;;;;;4.15;3.75;;;;;;;;;;5137506;27;20198;-64
2024/01/15 12:14:48;;;;;;;3.65;3.22;;;;;;;;;;5138264;27;20224;-65
2024/01/15 12:17:16;;;;;;;4.65;3.55;;;;;;;;;;5137987;27;20201;-65
2024/01/15 12:19:43;;;;;;;4.25;3.60;;;;;;;;;;5138114;27;20198;-64
2024/01/15 12:22:12;;;;;;;3.95;3.47;;;;;;;;;;5137511;27;20621;-64
2024/01/15 12:24:39;;;;;;;4.38;3.30;;;;;;;;;;5138049;27;20241;-64
2024/01/15 12:27:07;;;;;;;3.80;3.40;;;;;;;;;;5138384;27;20210;-64
2024/01/15 12:29:34;;;;;;;4.05;3.47;;;;;;;;;;5138752;27;20471;-65
2024/01/15 12:32:01;;;;;;;4.03;3.38;;;;;;;;;;5138973;27;20213;-65
2024/01/15 12:34:31;;;;;;;3.45;3.15;;;;;;;;;;5138092;27;20221;-65
2024/01/15 12:36:59;;;;;;;4.20;3.20;;;;;;;;;;5138059;27;20202;-65
2024/01/15 12:39:28;;;;;;;3.58;3.10;;;;;;;;;;5138257;27;20572;-64
2024/01/15 12:41:55;;;;;;;5.32;3.55;;;;;;;;;;5137104;27;20222;-64
2024/01/15 12:44:23;;;;;;;4.68;3.60;;;;;;;;;;5137688;27;20706;-64
2024/01/15 12:46:50;;;;;;;3.97;3.25;;;;;;;;;;5137819;27;20222;-65
2024/01/15 12:49:17;;;;;;;4.38;3.42;;;;;;;;;;5137574;27;20214;-64
2024/01/15 12:51:46;;;;;;;4.35;3.35;;;;;;;;;;5137577;27;20199;-65
2024/01/15 12:54:13;;;;;;;3.75;3.20;;;;;;;;;;5137461;27;20686;-64
2024/01/15 12:56:42;;;;;;;4.50;3.72;;;;;;;;;;5137553;27;20214;-64
2024/01/15 12:59:09;;;;;;;4.22;3.38;;;;;;;;;;5137735;27;20226;-65
2024/01/15 13:01:37;;;;;;;3.97;3.47;;;;;;;;;;5137246;27;20222;-64
2024/01/15 13:04:08;;;;;;;3.58;3.10;;;;;;;;;;5137110;27;20202;-64
2024/01/15 13:06:36;;;;;;;4.50;3.38;;;;;;;;;;5136914;27;20194;-64
2024/01/15 13:09:05;;;;;;;3.58;3.15;;;;;;;;;;5137122;27;20202;-64
2024/01/15 13:11:33;;;;;;;4.25;3.42;;;;;;;;;;5136684;27;20198;-64
2024/01/15 13:14:01;;;;;;;3.92;3.30;;;;;;;;;;5136704;27;20198;-64
2024/01/15 13:16:29;;;;;;;3.85;3.17;;;;;;;;;;5137729;27;20207;-65
2024/01/15 13:18:56;;;;;;;4.60;3.85;;;;;;;;;;5137328;27;20263;-65
2024/01/15 13:21:24;;;;;;;3.83;3.20;;;;;;;;;;5137089;27;20222;-65
2024/01/15 13:23:51;;;;;;;4.03;3.40;;;;;;;;;;5136021;27;20203;-64
2024/01/15 13:26:20;;;;;;;3.55;3.17;;;;;;;;;;5135613;27;20194;-65
2024/01/15 13:28:47;;;;;;;4.38;3.47;;;;;;;;;;5136031;27;20488;-64
2024/01/15 13:31:16;;;;;;;3.47;3.17;;;;;;;;;;5136890;27;20198;-64
2024/01/15 13:33:43;;;;;;;3.28;2.97;;;;;;;;;;5135989;27;20202;-65
2024/01/15 13:36:11;;;;;;;4.07;3.67;;;;;;;;;;5135627;27;20202;-65
2024/01/15 13:38:38;;;;;;;4.40;3.40;;;;;;;;;;5135915;27;20289;-64
2024/01/15 13:41:06;;;;;;;3.90;3.10;;;;;;;;;;5135379;27;20218;-64
2024/01/15 13:43:33;;;;;;;3.90;3.08;;;;;;;;;;5135381;27;20231;-64
2024/01/15 13:46:04;;;;;;;3.80;3.30;;;;;;;;;;5135382;27;20242;-65
2024/01/15 13:48:33;;;;;;;3.70;3.22;;;;;;;;;;5135362;27;20206;-64
2024/01/15 13:51:00;;;;;;;3.80;3.33;;;;;;;;;;5136232;27;20214;-64
2024/01/15 13:53:29;;;;;;;3.80;3.00;;;;;;;;;;5135080;27;20202;-64
2024/01/15 13:55:56;;;;;;;3.90;3.47;;;;;;;;;;5136317;27;20588;-65
2024/01/15 13:58:25;;;;;;;3.95;3.50;;;;;;;;;;5135588;27;20535;-64
2024/01/15 14:00:52;;;;;;;4.00;3.40;;;;;;;;;;5135528;27;20244;-65
2024/01/15 14:03:20;;;;;;;3.95;3.58;;;;;;;;;;5136459;27;20590;-64
2024/01/15 14:05:49;;;;;;;4.35;3.63;;;;;;;;;;5135573;27;20202;-64
2024/01/15 14:08:16;;;;;;;3.65;3.30;;;;;;;;;;5135949;27;20213;-64
2024/01/15 14:10:44;;;;;;;4.35;3.47;;;;;;;;;;5136383;27;20198;-64
2024/01/15 14:13:12;;;;;;;4.07;3.53;;;;;;;;;;5136128;27;20198;-64
2024/01/15 14:15:39;;;;;;;3.45;3.15;;;;;;;;;;5135352;27;20206;-64
2024/01/15 14:18:07;;;;;;;3.88;3.33;;;;;;;;;;5135411;27;20214;-64
2024/01/15 14:20:34;;;;;;;3.25;2.92;;;;;;;;;;5135222;27;20227;-64
2024/01/15 14:23:03;;;;;;;3.45;3.15;;;;;;;;;;5135368;27;20756;-64
2024/01/15 14:25:31;;;;;;;3.65;3.10;;;;;;;;;;5135316;27;20229;-64
2024/01/15 14:27:58;;;;;;;3.83;3.40;;;;;;;;;;5135745;27;20704;-71
2024/01/15 14:30:25;;;;;;;3.58;3.28;;;;;;;;;;5136140;27;20203;-64
2024/01/15 14:32:53;;;;;;;3.95;3.30;;;;;;;;;;5134736;27;20198;-64
2024/01/15 14:35:21;;;;;;;4.15;3.30;;;;;;;;;;5134005;27;20207;-64
2024/01/15 14:37:49;;;;;;;3.85;3.08;;;;;;;;;;5135388;27;20201;-65
2024/01/15 14:40:18;;;;;;;3.63;3.30;;;;;;;;;;5135636;27;20690;-64
2024/01/15 14:42:45;;;;;;;3.33;2.97;;;;;;;;;;5134941;27;20598;-64
2024/01/15 14:45:13;;;;;;;4.03;3.50;;;;;;;;;;5134150;27;20202;-64
2024/01/15 14:47:41;;;;;;;3.90;3.38;;;;;;;;;;5134251;27;20216;-64